createdAt,value
2022-10-19T00:04:13.897Z,18.43
2022-10-19T00:09:20.579Z,14.40
2022-10-19T00:14:25.360Z,18.53
2022-10-19T00:19:29.681Z,15.93
2022-10-19T00:24:34.511Z,15.50
2022-10-19T00:29:37.903Z,19.43
2022-10-19T00:34:41.297Z,17.73
2022-10-19T00:39:46.135Z,16.90
2022-10-19T00:45:04.989Z,19.57
2022-10-19T00:50:10.054Z,24.30
2022-10-19T00:55:15.463Z,21.43
2022-10-19T01:00:19.497Z,7.47
2022-10-19T01:05:22.932Z,8.97
2022-10-19T01:10:39.190Z,23.77
2022-10-19T01:15:48.316Z,13.57
2022-10-19T01:21:20.343Z,4.63
2022-10-19T01:26:45.891Z,20.83
2022-10-19T01:31:57.383Z,14.00
2022-10-19T01:37:05.255Z,9.13
2022-10-19T01:42:15.959Z,4.97
2022-10-19T01:47:24.338Z,4.90
2022-10-19T01:52:29.056Z,6.70
2022-10-19T01:57:36.223Z,5.43
2022-10-19T02:02:46.527Z,3.93
2022-10-19T02:07:56.049Z,5.77
2022-10-19T02:13:00.003Z,5.17
2022-10-19T02:18:30.451Z,3.03
2022-10-19T02:23:34.222Z,4.53
2022-10-19T02:28:38.591Z,4.33
2022-10-19T02:33:43.799Z,6.13
2022-10-19T02:38:47.408Z,7.23
2022-10-19T02:43:58.704Z,8.77
2022-10-19T02:49:05.544Z,5.10
2022-10-19T02:54:10.182Z,10.20
2022-10-19T02:59:13.780Z,3.70
2022-10-19T03:04:18.733Z,3.70
2022-10-19T03:09:22.145Z,6.13
2022-10-19T03:14:25.496Z,6.60
2022-10-19T03:19:30.808Z,3.50
2022-10-19T03:24:34.773Z,5.17
2022-10-19T03:29:38.123Z,3.07
2022-10-19T03:34:42.857Z,4.77
2022-10-19T03:39:46.266Z,4.20
2022-10-19T03:44:49.580Z,6.07
2022-10-19T03:49:54.442Z,2.83
2022-10-19T03:54:58.073Z,3.30
2022-10-19T04:00:01.696Z,2.23
2022-10-19T04:05:16.781Z,2.53
2022-10-19T04:10:20.128Z,4.33
2022-10-19T04:15:23.801Z,3.20
2022-10-19T04:20:28.825Z,3.33
2022-10-19T04:25:32.487Z,2.90
2022-10-19T04:30:35.862Z,3.97
2022-10-19T04:35:40.715Z,2.40
2022-10-19T04:40:44.540Z,3.00
2022-10-19T04:45:47.959Z,2.07
2022-10-19T04:50:56.100Z,1.90
2022-10-19T04:55:59.612Z,2.60
2022-10-19T05:01:09.857Z,4.27
2022-10-19T05:06:16.184Z,3.57
2022-10-19T05:11:20.173Z,5.77
2022-10-19T05:16:25.924Z,4.63
2022-10-19T05:21:30.836Z,5.43
2022-10-19T05:26:34.210Z,6.90
2022-10-19T05:31:37.541Z,9.27
2022-10-19T05:36:42.749Z,6.10
2022-10-19T05:41:47.467Z,8.67
2022-10-19T05:46:52.166Z,19.03
2022-10-19T05:51:57.172Z,8.53
2022-10-19T05:57:01.149Z,9.47
2022-10-19T06:02:04.986Z,6.00
2022-10-19T06:07:09.778Z,8.53
2022-10-19T06:12:14.883Z,9.37
2022-10-19T06:17:19.774Z,8.40
2022-10-19T06:22:24.797Z,8.37
2022-10-19T06:27:28.206Z,8.27
2022-10-19T06:32:33.975Z,7.77
2022-10-19T06:37:38.954Z,10.27
2022-10-19T06:42:42.376Z,9.67
2022-10-19T06:52:57.570Z,8.03
2022-10-19T06:58:01.910Z,7.57
2022-10-19T07:03:05.640Z,9.40
2022-10-19T07:08:10.583Z,8.33
2022-10-19T07:13:14.157Z,7.83
2022-10-19T07:18:17.587Z,9.43
2022-10-19T07:23:22.675Z,7.60
2022-10-19T07:28:26.378Z,9.43
2022-10-19T07:33:29.849Z,8.90
2022-10-19T07:38:35.759Z,9.37
2022-10-19T07:43:39.291Z,6.27
2022-10-19T07:48:43.077Z,7.10
2022-10-19T07:53:47.954Z,7.60
2022-10-19T07:58:53.830Z,5.30
2022-10-19T08:04:55.364Z,6.77
2022-10-19T08:09:50.907Z,8.60
2022-10-19T08:14:48.208Z,8.60
2022-10-19T08:19:51.872Z,10.27
2022-10-19T08:24:56.687Z,9.27
2022-10-19T08:30:00.066Z,7.03
2022-10-19T08:35:06.065Z,11.53
2022-10-19T08:40:20.152Z,7.50
2022-10-19T08:45:43.291Z,9.60
2022-10-19T08:50:48.310Z,8.40
2022-10-19T08:56:06.467Z,8.33
2022-10-19T09:01:15.366Z,8.83
2022-10-19T09:06:26.569Z,7.10
2022-10-19T09:11:34.387Z,6.27
2022-10-19T09:16:37.875Z,7.13
2022-10-19T09:21:47.903Z,6.40
2022-10-19T09:26:54.609Z,8.45
2022-10-19T09:32:01.597Z,11.35
2022-10-19T09:37:05.561Z,8.73
2022-10-19T09:42:18.562Z,7.40
2022-10-19T09:47:34.302Z,9.10
2022-10-19T09:52:39.895Z,13.05
2022-10-19T09:57:45.916Z,6.63
2022-10-19T10:02:53.173Z,8.77
2022-10-19T10:07:56.946Z,8.10
2022-10-19T10:13:02.256Z,6.18
2022-10-19T10:18:05.854Z,6.40
2022-10-19T10:23:25.055Z,6.93
2022-10-19T10:28:31.435Z,8.40
2022-10-19T10:33:45.033Z,7.65
2022-10-19T10:38:53.208Z,8.43
2022-10-19T10:44:04.568Z,6.10
2022-10-19T10:49:17.900Z,7.90
2022-10-19T10:54:23.081Z,9.93
2022-10-19T10:59:32.405Z,9.30
2022-10-19T11:04:42.404Z,6.72
2022-10-19T11:09:52.201Z,10.50
2022-10-19T11:15:05.131Z,7.78
2022-10-19T11:20:15.284Z,8.30
2022-10-19T11:25:31.355Z,7.47
2022-10-19T11:30:42.847Z,6.43
2022-10-19T11:35:53.276Z,5.90
2022-10-19T11:41:24.380Z,9.95
2022-10-19T11:46:37.112Z,11.02
2022-10-19T11:51:47.157Z,7.47
2022-10-19T11:57:04.721Z,6.95
2022-10-19T12:02:32.819Z,7.20
2022-10-19T12:07:57.854Z,7.35
2022-10-19T12:13:04.818Z,6.00
2022-10-19T12:18:17.529Z,7.57
2022-10-19T12:23:29.482Z,7.60
2022-10-19T12:28:35.266Z,7.32
2022-10-19T12:33:47.451Z,7.97
2022-10-19T12:39:01.015Z,5.85
2022-10-19T12:44:21.148Z,9.98
2022-10-19T12:49:45.957Z,9.48
2022-10-19T12:54:49.629Z,15.20
2022-10-19T13:00:02.130Z,11.00
2022-10-19T13:05:08.676Z,16.15
2022-10-19T13:10:22.674Z,14.35
2022-10-19T13:15:52.742Z,10.85
2022-10-19T13:20:58.740Z,14.13
2022-10-19T13:26:35.603Z,12.55
2022-10-19T13:31:39.354Z,12.50
2022-10-19T13:37:01.417Z,10.25
2022-10-19T13:42:04.856Z,13.60
2022-10-19T13:47:34.488Z,12.90
2022-10-19T13:52:55.096Z,12.82
2022-10-19T13:58:24.156Z,11.15
2022-10-19T14:03:40.987Z,14.40
2022-10-19T14:09:14.067Z,13.82
2022-10-19T14:14:20.314Z,17.85
2022-10-19T14:19:28.244Z,13.57
2022-10-19T14:24:37.082Z,12.20
2022-10-19T14:29:47.098Z,14.93
2022-10-19T14:34:51.125Z,17.60
2022-10-19T14:40:08.984Z,11.68
2022-10-19T14:45:18.261Z,16.15
2022-10-19T14:50:24.886Z,11.27
2022-10-19T14:55:37.453Z,14.38
2022-10-19T15:00:41.315Z,14.02
2022-10-19T15:05:49.417Z,13.70
2022-10-19T15:10:54.790Z,17.38
2022-10-19T15:15:58.240Z,13.20
2022-10-19T15:21:12.296Z,19.40
2022-10-19T15:26:28.281Z,15.50
2022-10-19T15:31:31.785Z,14.38
2022-10-19T15:36:35.152Z,18.67
2022-10-19T15:41:41.192Z,14.80
2022-10-19T15:47:19.338Z,44.40
2022-10-19T15:52:24.107Z,31.85
2022-10-19T15:57:31.997Z,47.88
2022-10-19T16:02:35.657Z,91.13
2022-10-19T16:07:41.338Z,35.80
2022-10-19T16:12:46.211Z,27.30
2022-10-19T16:17:51.174Z,28.03
2022-10-19T16:22:54.900Z,22.67
2022-10-19T16:27:59.925Z,22.57
2022-10-19T16:33:03.549Z,18.47
2022-10-19T16:38:06.931Z,26.13
2022-10-19T16:43:11.688Z,19.33
2022-10-19T16:48:15.396Z,20.43
2022-10-19T16:53:18.804Z,17.70
2022-10-19T16:58:23.548Z,16.07
2022-10-19T17:03:26.910Z,15.17
2022-10-19T17:08:36.975Z,17.27
2022-10-19T17:13:58.689Z,13.47
2022-10-19T17:19:03.276Z,15.53
2022-10-19T17:24:08.796Z,18.30
2022-10-19T17:29:13.763Z,20.35
2022-10-19T17:34:17.424Z,13.17
2022-10-19T17:39:25.717Z,15.53
2022-10-19T17:44:35.012Z,26.67
2022-10-19T17:49:38.605Z,47.00
2022-10-19T17:54:54.387Z,32.03
2022-10-19T18:00:09.383Z,23.77
2022-10-19T18:05:16.105Z,21.03
2022-10-19T18:10:19.592Z,19.93
2022-10-19T18:15:24.348Z,24.00
2022-10-19T18:20:28.395Z,18.93
2022-10-19T18:25:52.848Z,20.30
2022-10-19T18:30:56.543Z,20.00
2022-10-19T18:36:00.160Z,19.67
2022-10-19T18:41:03.854Z,20.93
2022-10-19T18:46:10.112Z,18.23
2022-10-19T18:51:15.520Z,22.10
2022-10-19T18:56:21.232Z,19.70
2022-10-19T19:01:28.163Z,24.57
2022-10-19T19:06:34.500Z,27.03
2022-10-19T19:11:41.036Z,18.13
2022-10-19T19:16:47.226Z,17.43
2022-10-19T19:21:50.595Z,18.10
2022-10-19T19:26:55.368Z,16.87
2022-10-19T19:32:00.154Z,21.57
2022-10-19T19:37:06.153Z,23.20
2022-10-19T19:42:12.256Z,17.80
2022-10-19T19:47:19.391Z,20.43
2022-10-19T19:52:22.764Z,20.37
2022-10-19T19:57:26.298Z,19.70
2022-10-19T20:02:32.951Z,20.03
2022-10-19T20:07:36.641Z,24.47
2022-10-19T20:12:40.203Z,18.13
2022-10-19T20:17:45.877Z,18.37
2022-10-19T20:22:50.544Z,19.07
2022-10-19T20:27:54.163Z,24.00
2022-10-19T20:32:59.628Z,19.57
2022-10-19T20:38:03.925Z,21.67
2022-10-19T20:43:07.588Z,19.40
2022-10-19T20:48:12.572Z,21.10
2022-10-19T20:53:15.876Z,16.13
2022-10-19T20:58:19.283Z,22.73
2022-10-19T21:03:24.143Z,19.47
2022-10-19T21:08:27.593Z,24.17
2022-10-19T21:13:30.990Z,17.17
2022-10-19T21:18:36.096Z,17.33
2022-10-19T21:23:39.656Z,16.77
2022-10-19T21:28:48.718Z,20.47
2022-10-19T21:33:54.377Z,16.33
2022-10-19T21:38:57.695Z,16.03
2022-10-19T21:44:01.708Z,20.60
2022-10-19T21:49:06.494Z,18.03
2022-10-19T21:54:13.702Z,17.60
2022-10-19T21:59:17.727Z,16.67
2022-10-19T22:04:22.901Z,20.50
2022-10-19T22:09:26.270Z,16.97
2022-10-19T22:14:29.863Z,16.57
2022-10-19T22:19:35.039Z,16.47
2022-10-19T22:24:38.815Z,16.23
2022-10-19T22:29:42.247Z,21.27
2022-10-19T22:34:47.403Z,17.87
2022-10-19T22:39:50.746Z,17.43
2022-10-19T22:44:54.068Z,20.07
2022-10-19T22:49:58.844Z,18.33
2022-10-19T22:55:02.183Z,16.20
2022-10-19T23:00:07.212Z,16.83
2022-10-19T23:05:12.199Z,16.33
2022-10-19T23:10:15.617Z,18.20
2022-10-19T23:15:19.392Z,15.03
2022-10-19T23:20:24.081Z,16.83
2022-10-19T23:25:27.491Z,16.53
2022-10-19T23:30:30.851Z,17.57
2022-10-19T23:35:35.737Z,17.23
2022-10-19T23:40:39.093Z,16.17
2022-10-19T23:45:42.427Z,19.70
2022-10-19T23:50:47.283Z,18.30
2022-10-19T23:55:50.663Z,16.57
